createdAt,value
2018-08-30T00:00:31.087Z,0.00
2018-08-30T00:01:31.065Z,0.00
2018-08-30T00:02:31.118Z,0.00
2018-08-30T00:03:31.172Z,0.00
2018-08-30T00:04:31.218Z,0.00
2018-08-30T00:05:31.277Z,0.00
2018-08-30T00:06:31.309Z,0.00
2018-08-30T00:07:31.369Z,0.00
2018-08-30T00:08:31.443Z,0.00
2018-08-30T00:09:31.453Z,0.00
2018-08-30T00:10:31.489Z,0.00
2018-08-30T00:11:31.526Z,0.00
2018-08-30T00:12:31.571Z,0.00
2018-08-30T00:13:31.608Z,0.00
2018-08-30T00:14:31.953Z,0.00
2018-08-30T00:15:31.742Z,0.00
2018-08-30T00:16:31.754Z,0.00
2018-08-30T00:17:31.807Z,0.00
2018-08-30T00:18:31.867Z,0.00
2018-08-30T00:19:31.886Z,0.00
2018-08-30T00:20:31.923Z,0.00
2018-08-30T00:21:31.986Z,0.00
2018-08-30T00:22:32.079Z,0.00
2018-08-30T00:23:32.126Z,0.00
2018-08-30T00:24:32.119Z,0.00
2018-08-30T00:25:32.167Z,0.00
2018-08-30T00:26:32.205Z,0.00
2018-08-30T00:27:32.259Z,0.00
2018-08-30T00:28:32.309Z,0.00
2018-08-30T00:29:32.339Z,0.00
2018-08-30T00:30:32.398Z,0.00
2018-08-30T00:31:32.433Z,0.00
2018-08-30T00:32:32.483Z,0.00
2018-08-30T00:33:32.533Z,0.00
2018-08-30T00:34:32.570Z,0.00
2018-08-30T00:35:32.884Z,0.00
2018-08-30T00:36:32.671Z,0.00
2018-08-30T00:37:32.718Z,0.00
2018-08-30T00:38:32.741Z,0.00
2018-08-30T00:39:32.817Z,0.00
2018-08-30T00:40:32.868Z,0.00
2018-08-30T00:41:32.892Z,0.00
2018-08-30T00:42:33.239Z,0.00
2018-08-30T00:43:32.974Z,0.00
2018-08-30T00:44:33.038Z,0.00
2018-08-30T00:45:33.066Z,0.00
2018-08-30T00:46:33.136Z,0.00
2018-08-30T00:47:33.151Z,0.00
2018-08-30T00:48:33.262Z,0.00
2018-08-30T00:49:33.255Z,0.00
2018-08-30T00:50:33.312Z,0.00
2018-08-30T00:51:33.331Z,0.00
2018-08-30T00:52:33.396Z,0.00
2018-08-30T00:53:33.669Z,0.00
2018-08-30T00:54:33.488Z,0.00
2018-08-30T00:55:33.568Z,0.00
2018-08-30T00:56:33.580Z,0.00
2018-08-30T00:57:33.599Z,0.00
2018-08-30T00:58:33.681Z,0.00
2018-08-30T00:59:33.703Z,0.00
2018-08-30T01:00:33.748Z,0.00
2018-08-30T01:01:33.780Z,0.00
2018-08-30T01:02:33.856Z,0.00
2018-08-30T01:03:33.893Z,0.00
2018-08-30T01:04:33.927Z,0.00
2018-08-30T01:05:33.949Z,0.00
2018-08-30T01:06:34.360Z,0.00
2018-08-30T01:07:34.059Z,0.00
2018-08-30T01:08:34.094Z,0.00
2018-08-30T01:09:34.152Z,0.00
2018-08-30T01:10:34.214Z,0.00
2018-08-30T01:11:34.266Z,0.00
2018-08-30T01:12:34.537Z,0.00
2018-08-30T01:13:34.341Z,0.00
2018-08-30T01:14:34.392Z,0.00
2018-08-30T01:15:34.435Z,0.00
2018-08-30T01:16:34.461Z,0.00
2018-08-30T01:17:34.506Z,0.00
2018-08-30T01:18:34.849Z,0.00
2018-08-30T01:19:34.610Z,0.00
2018-08-30T01:20:34.671Z,0.00
2018-08-30T01:21:34.720Z,0.00
2018-08-30T01:22:34.738Z,0.00
2018-08-30T01:23:34.792Z,0.00
2018-08-30T01:24:35.144Z,0.00
2018-08-30T01:25:34.932Z,0.00
2018-08-30T01:26:34.907Z,0.00
2018-08-30T01:27:34.960Z,0.00
2018-08-30T01:28:35.632Z,0.00
2018-08-30T01:29:35.911Z,0.00
2018-08-30T01:30:35.358Z,0.00
2018-08-30T01:31:35.125Z,0.00
2018-08-30T01:32:35.177Z,0.00
2018-08-30T01:33:35.274Z,0.00
2018-08-30T01:34:35.272Z,0.00
2018-08-30T01:35:35.346Z,0.00
2018-08-30T01:36:35.716Z,0.00
2018-08-30T01:37:35.398Z,0.00
2018-08-30T01:38:35.459Z,0.00
2018-08-30T01:39:35.513Z,0.00
2018-08-30T01:40:35.536Z,0.00
2018-08-30T01:41:35.566Z,0.00
2018-08-30T01:42:35.976Z,0.00
2018-08-30T01:43:35.666Z,0.00
2018-08-30T01:44:35.709Z,0.00
2018-08-30T01:45:35.778Z,0.00
2018-08-30T01:46:35.801Z,0.00
2018-08-30T01:47:35.863Z,0.00
2018-08-30T01:48:36.199Z,0.00
2018-08-30T01:49:35.925Z,0.00
2018-08-30T01:50:35.987Z,0.00
2018-08-30T01:51:36.041Z,0.00
2018-08-30T01:52:36.094Z,0.00
2018-08-30T01:53:36.113Z,0.00
2018-08-30T01:54:36.163Z,0.00
2018-08-30T01:55:36.226Z,0.00
2018-08-30T01:56:36.257Z,0.00
2018-08-30T01:57:36.301Z,0.00
2018-08-30T01:58:36.623Z,0.00
2018-08-30T01:59:36.404Z,0.00
2018-08-30T02:00:36.423Z,0.00
2018-08-30T02:01:36.510Z,0.00
2018-08-30T02:02:36.527Z,0.00
2018-08-30T02:03:36.616Z,0.00
2018-08-30T02:04:36.673Z,0.00
2018-08-30T02:05:37.013Z,0.00
2018-08-30T02:06:36.697Z,0.00
2018-08-30T02:07:36.843Z,0.00
2018-08-30T02:08:36.828Z,0.00
2018-08-30T02:09:36.879Z,0.00
2018-08-30T02:10:36.972Z,0.00
2018-08-30T02:11:37.230Z,0.00
2018-08-30T02:12:36.998Z,0.00
2018-08-30T02:13:37.008Z,0.00
2018-08-30T02:14:37.142Z,0.00
2018-08-30T02:15:37.147Z,0.00
2018-08-30T02:16:37.192Z,0.00
2018-08-30T02:17:37.546Z,0.00
2018-08-30T02:18:37.215Z,0.00
2018-08-30T02:19:37.258Z,0.00
2018-08-30T02:20:37.319Z,0.00
2018-08-30T02:21:37.366Z,0.00
2018-08-30T02:22:37.411Z,0.00
2018-08-30T02:23:37.780Z,0.00
2018-08-30T02:24:37.555Z,0.00
2018-08-30T02:25:37.523Z,0.00
2018-08-30T02:26:37.555Z,0.00
2018-08-30T02:27:37.623Z,0.00
2018-08-30T02:28:37.766Z,0.00
2018-08-30T02:29:37.720Z,0.00
2018-08-30T02:30:37.814Z,0.00
2018-08-30T02:31:37.780Z,0.00
2018-08-30T02:32:37.852Z,0.00
2018-08-30T02:33:37.869Z,0.00
2018-08-30T02:34:38.308Z,0.00
2018-08-30T02:35:37.976Z,0.00
2018-08-30T02:36:38.017Z,0.00
2018-08-30T02:37:38.049Z,0.00
2018-08-30T02:38:38.093Z,0.00
2018-08-30T02:39:38.179Z,0.00
2018-08-30T02:40:38.200Z,0.00
2018-08-30T02:41:38.220Z,0.00
2018-08-30T02:42:38.305Z,0.00
2018-08-30T02:43:38.316Z,0.00
2018-08-30T02:44:38.371Z,0.00
2018-08-30T02:45:38.408Z,0.00
2018-08-30T02:46:38.451Z,0.00
2018-08-30T02:47:38.512Z,0.00
2018-08-30T02:48:38.530Z,0.00
2018-08-30T02:49:38.609Z,0.00
2018-08-30T02:50:38.680Z,0.00
2018-08-30T02:51:38.691Z,0.00
2018-08-30T02:52:38.724Z,0.00
2018-08-30T02:53:38.761Z,0.00
2018-08-30T02:54:39.037Z,0.00
2018-08-30T02:55:38.863Z,0.00
2018-08-30T02:56:38.883Z,0.00
2018-08-30T02:57:38.931Z,0.00
2018-08-30T02:58:39.002Z,0.00
2018-08-30T02:59:39.019Z,0.00
2018-08-30T03:00:39.080Z,0.00
2018-08-30T03:01:39.138Z,0.00
2018-08-30T03:02:39.173Z,0.00
2018-08-30T03:03:39.197Z,0.00
2018-08-30T03:04:39.308Z,0.00
2018-08-30T03:05:39.302Z,0.00
2018-08-30T03:06:39.330Z,0.00
2018-08-30T03:07:39.382Z,0.00
2018-08-30T03:08:39.472Z,0.00
2018-08-30T03:09:39.479Z,0.00
2018-08-30T03:10:39.496Z,0.00
2018-08-30T03:11:39.564Z,0.00
2018-08-30T03:12:39.609Z,0.00
2018-08-30T03:13:39.642Z,0.00
2018-08-30T03:14:39.679Z,0.00
2018-08-30T03:15:39.775Z,0.00
2018-08-30T03:16:39.868Z,0.00
2018-08-30T03:17:39.844Z,0.00
2018-08-30T03:18:39.875Z,0.00
2018-08-30T03:19:39.904Z,0.00
2018-08-30T03:20:39.935Z,0.00
2018-08-30T03:21:40.238Z,0.00
2018-08-30T03:22:40.037Z,0.00
2018-08-30T03:23:40.100Z,0.00
2018-08-30T03:24:40.136Z,0.00
2018-08-30T03:25:40.175Z,0.00
2018-08-30T03:26:40.210Z,0.00
2018-08-30T03:27:40.253Z,0.00
2018-08-30T03:28:40.309Z,0.00
2018-08-30T03:29:40.365Z,0.00
2018-08-30T03:30:40.450Z,0.00
2018-08-30T03:31:40.430Z,0.00
2018-08-30T03:32:40.455Z,0.00
2018-08-30T03:33:40.502Z,0.00
2018-08-30T03:34:40.564Z,0.00
2018-08-30T03:35:40.626Z,0.00
2018-08-30T03:36:40.672Z,0.00
2018-08-30T03:37:40.699Z,0.00
2018-08-30T03:38:40.803Z,0.00
2018-08-30T03:39:40.779Z,0.00
2018-08-30T03:40:40.810Z,0.00
2018-08-30T03:41:40.844Z,0.00
2018-08-30T03:42:40.913Z,0.00
2018-08-30T03:43:40.943Z,0.00
2018-08-30T03:44:40.983Z,0.00
2018-08-30T03:45:41.050Z,0.00
2018-08-30T03:46:41.089Z,0.00
2018-08-30T03:47:41.138Z,0.00
2018-08-30T03:48:41.480Z,0.00
2018-08-30T03:49:41.213Z,0.00
2018-08-30T03:50:41.263Z,0.00
2018-08-30T03:51:41.302Z,0.00
2018-08-30T03:52:41.361Z,0.00
2018-08-30T03:53:41.391Z,0.00
2018-08-30T03:54:41.467Z,0.00
2018-08-30T03:55:41.779Z,0.00
2018-08-30T03:56:41.529Z,0.00
2018-08-30T03:57:41.609Z,0.00
2018-08-30T03:58:41.590Z,0.00
2018-08-30T03:59:41.633Z,0.00
2018-08-30T04:00:41.687Z,0.00
2018-08-30T04:01:41.717Z,0.00
2018-08-30T04:02:41.776Z,0.00
2018-08-30T04:03:41.840Z,0.00
2018-08-30T04:04:41.867Z,0.00
2018-08-30T04:05:41.900Z,0.00
2018-08-30T04:06:42.197Z,0.00
2018-08-30T04:07:41.992Z,0.00
2018-08-30T04:08:42.036Z,0.00
2018-08-30T04:09:42.075Z,0.00
2018-08-30T04:10:42.133Z,0.00
2018-08-30T04:11:42.173Z,0.00
2018-08-30T04:12:42.220Z,0.00
2018-08-30T04:13:42.583Z,0.00
2018-08-30T04:14:42.329Z,0.00
2018-08-30T04:15:42.341Z,0.00
2018-08-30T04:16:42.395Z,0.00
2018-08-30T04:17:42.445Z,0.00
2018-08-30T04:18:42.477Z,0.00
2018-08-30T04:19:42.825Z,0.00
2018-08-30T04:20:42.575Z,0.00
2018-08-30T04:21:42.603Z,0.00
2018-08-30T04:22:42.646Z,0.00
2018-08-30T04:23:42.700Z,0.00
2018-08-30T04:24:42.767Z,0.00
2018-08-30T04:25:43.072Z,0.00
2018-08-30T04:26:42.812Z,0.00
2018-08-30T04:27:42.873Z,0.00
2018-08-30T04:28:42.916Z,0.00
2018-08-30T04:29:42.942Z,0.00
2018-08-30T04:30:43.041Z,0.00
2018-08-30T04:31:43.353Z,0.00
2018-08-30T04:32:43.070Z,0.00
2018-08-30T04:33:43.131Z,0.00
2018-08-30T04:34:43.163Z,0.00
2018-08-30T04:35:43.198Z,0.00
2018-08-30T04:36:43.232Z,0.00
2018-08-30T04:37:43.582Z,0.00
2018-08-30T04:38:43.341Z,0.00
2018-08-30T04:39:43.385Z,0.00
2018-08-30T04:40:43.431Z,0.00
2018-08-30T04:41:43.461Z,0.00
2018-08-30T04:42:43.502Z,0.00
2018-08-30T04:43:43.570Z,0.00
2018-08-30T04:44:43.608Z,0.00
2018-08-30T04:45:43.635Z,0.00
2018-08-30T04:46:43.673Z,0.00
2018-08-30T04:47:43.698Z,0.00
2018-08-30T04:48:44.064Z,0.00
2018-08-30T04:49:43.805Z,0.00
2018-08-30T04:50:43.853Z,0.00
2018-08-30T04:51:43.898Z,0.00
2018-08-30T04:52:43.942Z,0.00
2018-08-30T04:53:43.982Z,0.00
2018-08-30T04:54:44.010Z,0.00
2018-08-30T04:55:44.382Z,0.00
2018-08-30T04:56:44.096Z,0.00
2018-08-30T04:57:44.186Z,0.00
2018-08-30T04:58:44.228Z,0.00
2018-08-30T04:59:44.228Z,0.00
2018-08-30T05:00:44.283Z,0.00
2018-08-30T05:01:44.438Z,0.00
2018-08-30T05:02:44.430Z,0.00
2018-08-30T05:03:44.411Z,0.00
2018-08-30T05:04:44.463Z,0.00
2018-08-30T05:05:44.796Z,0.00
2018-08-30T05:06:44.537Z,0.00
2018-08-30T05:07:44.578Z,0.00
2018-08-30T05:08:44.636Z,0.00
2018-08-30T05:09:44.730Z,0.00
2018-08-30T05:10:44.710Z,0.00
2018-08-30T05:11:45.049Z,0.00
2018-08-30T05:12:44.838Z,0.00
2018-08-30T05:13:44.876Z,0.00
2018-08-30T05:14:44.902Z,0.00
2018-08-30T05:15:44.935Z,0.00
2018-08-30T05:16:44.978Z,0.00
2018-08-30T05:17:45.022Z,0.00
2018-08-30T05:18:45.371Z,0.00
2018-08-30T05:19:45.100Z,0.00
2018-08-30T05:20:45.164Z,0.00
2018-08-30T05:21:45.172Z,0.00
2018-08-30T05:22:45.282Z,0.00
2018-08-30T05:23:45.566Z,0.00
2018-08-30T05:24:45.365Z,0.00
2018-08-30T05:25:45.362Z,0.00
2018-08-30T05:26:45.382Z,0.00
2018-08-30T05:27:45.443Z,0.00
2018-08-30T05:28:45.482Z,0.00
2018-08-30T05:29:45.830Z,0.00
2018-08-30T05:30:45.553Z,0.00
2018-08-30T05:31:45.622Z,0.00
2018-08-30T05:32:45.667Z,0.00
2018-08-30T05:33:45.711Z,0.00
2018-08-30T05:34:45.729Z,0.00
2018-08-30T05:35:46.130Z,0.00
2018-08-30T05:36:45.844Z,0.00
2018-08-30T05:37:45.854Z,0.00
2018-08-30T05:38:45.918Z,0.00
2018-08-30T05:39:46.003Z,0.00
2018-08-30T05:40:46.009Z,0.00
2018-08-30T05:41:46.088Z,0.00
2018-08-30T05:42:46.468Z,0.00
2018-08-30T05:43:46.130Z,0.00
2018-08-30T05:44:46.301Z,0.00
2018-08-30T05:45:46.211Z,0.00
2018-08-30T05:46:46.272Z,0.00
2018-08-30T05:47:46.605Z,0.00
2018-08-30T05:48:46.352Z,0.00
2018-08-30T05:49:46.369Z,0.00
2018-08-30T05:50:46.423Z,0.00
2018-08-30T05:51:46.467Z,0.00
2018-08-30T05:52:46.511Z,0.00
2018-08-30T05:53:46.559Z,0.00
2018-08-30T05:54:46.583Z,0.00
2018-08-30T05:55:46.690Z,0.00
2018-08-30T05:56:46.735Z,0.00
2018-08-30T05:57:46.739Z,0.00
2018-08-30T05:58:46.828Z,0.00
2018-08-30T05:59:46.902Z,0.00
2018-08-30T06:00:46.850Z,0.00
2018-08-30T06:01:46.885Z,0.00
2018-08-30T06:02:46.950Z,0.00
2018-08-30T06:03:47.476Z,0.00
2018-08-30T06:04:47.022Z,0.00
2018-08-30T06:05:47.110Z,0.00
2018-08-30T06:06:47.136Z,0.00
2018-08-30T06:07:47.160Z,0.00
2018-08-30T06:08:47.210Z,0.00
2018-08-30T06:09:47.564Z,0.00
2018-08-30T06:10:47.263Z,0.00
2018-08-30T06:11:47.324Z,0.00
2018-08-30T06:12:47.352Z,0.00
2018-08-30T06:13:47.402Z,0.00
2018-08-30T06:14:47.441Z,0.00
2018-08-30T06:15:47.493Z,0.00
2018-08-30T06:16:47.537Z,0.00
2018-08-30T06:17:47.575Z,0.00
2018-08-30T06:18:47.607Z,0.00
2018-08-30T06:19:47.669Z,0.00
2018-08-30T06:20:47.996Z,0.00
2018-08-30T06:21:48.002Z,0.00
2018-08-30T06:22:47.794Z,0.00
2018-08-30T06:23:47.848Z,0.00
2018-08-30T06:24:47.855Z,0.00
2018-08-30T06:25:47.915Z,0.00
2018-08-30T06:26:47.972Z,0.00
2018-08-30T06:27:48.345Z,0.00
2018-08-30T06:28:48.091Z,0.00
2018-08-30T06:29:48.120Z,0.00
2018-08-30T06:30:48.112Z,0.00
2018-08-30T06:31:48.176Z,0.00
2018-08-30T06:32:48.279Z,0.00
2018-08-30T06:33:48.558Z,0.00
2018-08-30T06:34:48.347Z,0.00
2018-08-30T06:35:48.387Z,0.00
2018-08-30T06:36:48.359Z,0.00
2018-08-30T06:37:48.409Z,0.00
2018-08-30T06:38:48.876Z,0.00
2018-08-30T06:39:48.509Z,0.00
2018-08-30T06:40:48.553Z,0.00
2018-08-30T06:41:48.588Z,0.00
2018-08-30T06:42:48.636Z,0.00
2018-08-30T06:43:48.702Z,0.00
2018-08-30T06:44:49.053Z,0.00
2018-08-30T06:45:48.808Z,0.00
2018-08-30T06:46:48.795Z,0.00
2018-08-30T06:47:48.847Z,0.00
2018-08-30T06:48:48.920Z,0.00
2018-08-30T06:49:48.942Z,0.00
2018-08-30T06:50:48.975Z,0.00
2018-08-30T06:51:49.005Z,0.00
2018-08-30T06:52:49.046Z,0.00
2018-08-30T06:53:49.100Z,0.00
2018-08-30T06:54:49.159Z,0.00
2018-08-30T06:55:49.486Z,0.00
2018-08-30T06:56:49.215Z,0.00
2018-08-30T06:57:49.275Z,0.00
2018-08-30T06:58:49.300Z,0.00
2018-08-30T06:59:49.336Z,0.00
2018-08-30T07:00:49.397Z,0.00
2018-08-30T07:01:49.739Z,0.00
2018-08-30T07:02:49.511Z,0.00
2018-08-30T07:03:49.530Z,0.00
2018-08-30T07:04:49.567Z,0.00
2018-08-30T07:05:49.597Z,0.00
2018-08-30T07:06:49.685Z,0.00
2018-08-30T07:07:49.682Z,0.00
2018-08-30T07:08:49.780Z,0.00
2018-08-30T07:09:49.762Z,0.00
2018-08-30T07:10:49.852Z,0.00
2018-08-30T07:11:49.867Z,0.00
2018-08-30T07:12:50.188Z,0.00
2018-08-30T07:13:49.918Z,0.00
2018-08-30T07:14:50.025Z,0.00
2018-08-30T07:15:50.007Z,0.00
2018-08-30T07:16:50.065Z,0.00
2018-08-30T07:17:50.097Z,0.00
2018-08-30T07:18:50.161Z,0.00
2018-08-30T07:19:50.191Z,0.00
2018-08-30T07:20:50.232Z,0.00
2018-08-30T07:21:50.292Z,0.00
2018-08-30T07:22:50.623Z,0.00
2018-08-30T07:23:50.367Z,0.00
2018-08-30T07:24:50.411Z,0.00
2018-08-30T07:25:50.417Z,0.00
2018-08-30T07:26:50.477Z,0.00
2018-08-30T07:27:50.530Z,0.00
2018-08-30T07:28:50.572Z,0.00
2018-08-30T07:29:50.617Z,0.00
2018-08-30T07:30:50.648Z,0.00
2018-08-30T07:31:50.699Z,0.00
2018-08-30T07:32:50.750Z,0.00
2018-08-30T07:33:50.784Z,0.00
2018-08-30T07:34:50.967Z,0.00
2018-08-30T07:35:50.911Z,0.00
2018-08-30T07:36:50.882Z,0.00
2018-08-30T07:37:50.935Z,0.00
2018-08-30T07:38:51.328Z,0.00
2018-08-30T07:39:51.070Z,0.00
2018-08-30T07:40:51.102Z,0.00
2018-08-30T07:41:51.106Z,0.00
2018-08-30T07:42:51.145Z,0.00
2018-08-30T07:43:51.521Z,0.00
2018-08-30T07:44:51.239Z,0.00
2018-08-30T07:45:51.284Z,0.00
2018-08-30T07:46:51.308Z,0.00
2018-08-30T07:47:51.360Z,0.00
2018-08-30T07:48:51.410Z,0.00
2018-08-30T07:49:51.751Z,0.00
2018-08-30T07:50:51.548Z,0.00
2018-08-30T07:51:51.554Z,0.00
2018-08-30T07:52:51.588Z,0.00
2018-08-30T07:53:51.628Z,0.00
2018-08-30T07:54:51.666Z,0.00
2018-08-30T07:55:52.011Z,0.00
2018-08-30T07:56:51.783Z,0.00
2018-08-30T07:57:51.798Z,0.00
2018-08-30T07:58:51.822Z,0.00
2018-08-30T07:59:51.930Z,0.00
2018-08-30T08:00:51.964Z,0.00
2018-08-30T08:01:51.954Z,0.00
2018-08-30T08:02:52.041Z,0.00
2018-08-30T08:03:52.033Z,0.00
2018-08-30T08:04:52.084Z,0.00
2018-08-30T08:05:52.192Z,0.00
2018-08-30T08:06:52.473Z,0.00
2018-08-30T08:07:52.205Z,0.00
2018-08-30T08:08:52.261Z,0.00
2018-08-30T08:09:52.310Z,0.00
2018-08-30T08:10:52.383Z,0.00
2018-08-30T08:11:52.460Z,0.00
2018-08-30T08:12:52.724Z,0.00
2018-08-30T08:13:52.504Z,0.00
2018-08-30T08:14:52.506Z,0.00
2018-08-30T08:15:52.561Z,0.00
2018-08-30T08:16:52.588Z,0.00
2018-08-30T08:17:52.678Z,0.00
2018-08-30T08:18:52.687Z,0.00
2018-08-30T08:19:53.017Z,0.00
2018-08-30T08:20:52.782Z,0.00
2018-08-30T08:21:52.794Z,0.00
2018-08-30T08:22:52.841Z,0.00
2018-08-30T08:23:52.928Z,0.00
2018-08-30T08:24:52.995Z,0.00
2018-08-30T08:25:52.974Z,0.00
2018-08-30T08:26:53.027Z,0.00
2018-08-30T08:27:53.037Z,0.00
2018-08-30T08:28:53.089Z,0.00
2018-08-30T08:29:53.433Z,0.00
2018-08-30T08:30:53.171Z,0.00
2018-08-30T08:31:53.216Z,0.00
2018-08-30T08:32:53.281Z,0.00
2018-08-30T08:33:53.289Z,0.00
2018-08-30T08:34:53.333Z,0.00
2018-08-30T08:35:53.648Z,0.00
2018-08-30T08:36:53.437Z,0.00
2018-08-30T08:37:53.476Z,0.00
2018-08-30T08:38:53.528Z,0.00
2018-08-30T08:39:53.568Z,0.00
2018-08-30T08:40:53.595Z,0.00
2018-08-30T08:41:53.935Z,0.00
2018-08-30T08:42:53.725Z,0.00
2018-08-30T08:43:53.723Z,0.00
2018-08-30T08:44:53.767Z,0.00
2018-08-30T08:45:53.792Z,0.00
2018-08-30T08:46:53.838Z,0.00
2018-08-30T08:47:54.170Z,0.00
2018-08-30T08:48:53.918Z,0.00
2018-08-30T08:49:54.012Z,0.00
2018-08-30T08:50:54.049Z,0.00
2018-08-30T08:51:54.056Z,0.00
2018-08-30T08:52:54.095Z,0.00
2018-08-30T08:53:54.556Z,0.00
2018-08-30T08:54:54.219Z,0.00
2018-08-30T08:55:54.240Z,0.00
2018-08-30T08:56:54.262Z,0.00
2018-08-30T08:57:54.327Z,0.00
2018-08-30T08:58:54.463Z,0.00
2018-08-30T08:59:54.433Z,0.00
2018-08-30T09:00:54.416Z,0.00
2018-08-30T09:01:54.499Z,0.00
2018-08-30T09:02:54.535Z,0.00
2018-08-30T09:03:54.898Z,0.00
2018-08-30T09:04:54.616Z,0.00
2018-08-30T09:05:54.657Z,0.00
2018-08-30T09:06:54.697Z,0.00
2018-08-30T09:07:54.743Z,0.00
2018-08-30T09:08:54.777Z,0.00
2018-08-30T09:09:55.107Z,0.00
2018-08-30T09:10:54.857Z,0.00
2018-08-30T09:11:54.880Z,0.00
2018-08-30T09:12:54.926Z,0.00
2018-08-30T09:13:54.990Z,5.63
2018-08-30T09:14:55.015Z,5.63
2018-08-30T09:15:55.068Z,5.63
2018-08-30T09:16:55.109Z,5.63
2018-08-30T09:17:55.143Z,5.63
2018-08-30T09:18:55.289Z,11.25
2018-08-30T09:19:55.211Z,11.25
2018-08-30T09:20:55.284Z,11.25
2018-08-30T09:21:55.547Z,16.88
2018-08-30T09:22:55.387Z,16.88
2018-08-30T09:23:55.407Z,16.88
2018-08-30T09:24:55.441Z,22.50
2018-08-30T09:25:55.489Z,22.50
2018-08-30T09:26:55.663Z,22.50
2018-08-30T09:27:55.552Z,28.13
2018-08-30T09:28:55.599Z,28.13
2018-08-30T09:29:55.652Z,33.75
2018-08-30T09:30:55.737Z,33.75
2018-08-30T09:31:55.769Z,39.38
2018-08-30T09:32:55.776Z,39.38
2018-08-30T09:33:55.876Z,39.38
2018-08-30T09:34:56.144Z,45.00
2018-08-30T09:35:55.911Z,45.00
2018-08-30T09:36:55.932Z,50.63
2018-08-30T09:37:55.968Z,50.63
2018-08-30T09:38:56.028Z,56.25
2018-08-30T09:39:56.058Z,56.25
2018-08-30T09:40:56.415Z,61.88
2018-08-30T09:41:56.157Z,61.88
2018-08-30T09:42:56.190Z,61.88
2018-08-30T09:43:56.239Z,67.50
2018-08-30T09:44:56.278Z,67.50
2018-08-30T09:45:57.668Z,73.13
2018-08-30T09:46:56.355Z,73.13
2018-08-30T09:47:56.396Z,78.75
2018-08-30T09:48:56.455Z,78.75
2018-08-30T09:49:56.466Z,84.38
2018-08-30T09:50:56.580Z,84.38
2018-08-30T09:51:56.563Z,90.00
2018-08-30T09:52:56.618Z,90.00
2018-08-30T09:53:56.637Z,90.00
2018-08-30T09:54:56.697Z,95.63
2018-08-30T09:55:56.733Z,95.63
2018-08-30T09:56:56.823Z,101.25
2018-08-30T09:57:56.831Z,101.25
2018-08-30T09:58:56.849Z,101.25
2018-08-30T09:59:56.907Z,106.88
2018-08-30T10:00:56.954Z,106.88
2018-08-30T10:01:56.985Z,112.50
2018-08-30T10:02:57.067Z,112.50
2018-08-30T10:03:57.075Z,118.13
2018-08-30T10:04:57.106Z,118.13
2018-08-30T10:05:57.147Z,123.75
2018-08-30T10:06:57.210Z,123.75
2018-08-30T10:07:57.249Z,123.75
2018-08-30T10:08:57.296Z,135.00
2018-08-30T10:09:57.340Z,140.63
2018-08-30T10:10:57.362Z,146.25
2018-08-30T10:11:57.422Z,151.88
2018-08-30T10:12:57.469Z,157.50
2018-08-30T10:13:57.510Z,225.00
2018-08-30T10:14:57.553Z,528.75
2018-08-30T10:15:57.710Z,517.50
2018-08-30T10:16:57.617Z,405.00
2018-08-30T10:17:57.679Z,213.75
2018-08-30T10:18:57.721Z,180.00
2018-08-30T10:19:57.743Z,281.25
2018-08-30T10:20:58.129Z,405.00
2018-08-30T10:21:57.852Z,804.38
2018-08-30T10:22:57.891Z,798.75
2018-08-30T10:23:57.936Z,849.38
2018-08-30T10:24:57.971Z,855.00
2018-08-30T10:25:58.015Z,871.88
2018-08-30T10:26:58.367Z,860.63
2018-08-30T10:27:58.116Z,877.50
2018-08-30T10:28:58.161Z,900.00
2018-08-30T10:29:58.205Z,911.25
2018-08-30T10:30:58.257Z,911.25
2018-08-30T10:31:58.279Z,911.25
2018-08-30T10:32:58.332Z,945.00
2018-08-30T10:33:58.393Z,967.50
2018-08-30T10:34:58.409Z,933.75
2018-08-30T10:35:58.476Z,961.88
2018-08-30T10:36:58.570Z,1012.50
2018-08-30T10:37:58.581Z,990.00
2018-08-30T10:38:58.869Z,1012.50
2018-08-30T10:39:58.667Z,1040.63
2018-08-30T10:40:58.709Z,1023.75
2018-08-30T10:41:58.765Z,1057.50
2018-08-30T10:42:58.895Z,1074.38
2018-08-30T10:43:58.840Z,1080.00
2018-08-30T10:44:59.210Z,1158.75
2018-08-30T10:45:58.956Z,1119.38
2018-08-30T10:46:59.008Z,1113.75
2018-08-30T10:47:59.050Z,1051.88
2018-08-30T10:48:59.101Z,1130.63
2018-08-30T10:49:59.266Z,1203.75
2018-08-30T10:50:59.183Z,1198.13
2018-08-30T10:51:59.219Z,1181.25
2018-08-30T10:52:59.301Z,1215.00
2018-08-30T10:53:59.318Z,1226.25
2018-08-30T10:54:59.406Z,1192.50
2018-08-30T10:55:59.453Z,1170.00
2018-08-30T10:56:59.481Z,1153.13
2018-08-30T10:57:59.610Z,1237.50
2018-08-30T10:58:59.610Z,1237.50
2018-08-30T10:59:59.683Z,1237.50
2018-08-30T11:00:59.714Z,1288.13
2018-08-30T11:01:59.746Z,1276.88
2018-08-30T11:02:59.789Z,1254.38
2018-08-30T11:03:59.857Z,1305.00
2018-08-30T11:04:59.902Z,1361.25
2018-08-30T11:06:00.200Z,1406.25
2018-08-30T11:07:00.001Z,1389.38
2018-08-30T11:08:00.059Z,1355.63
2018-08-30T11:09:00.083Z,1321.88
2018-08-30T11:10:00.226Z,1344.38
2018-08-30T11:11:00.225Z,1366.88
2018-08-30T11:12:00.246Z,1395.00
2018-08-30T11:13:00.571Z,1406.25
2018-08-30T11:14:00.361Z,1417.50
2018-08-30T11:15:00.418Z,1479.38
2018-08-30T11:16:00.471Z,1428.75
2018-08-30T11:17:00.510Z,1440.00
2018-08-30T11:18:00.553Z,1513.13
2018-08-30T11:19:00.606Z,1445.63
2018-08-30T11:20:00.670Z,1485.00
2018-08-30T11:21:00.765Z,1546.88
2018-08-30T11:22:00.787Z,1518.75
2018-08-30T11:23:00.826Z,1445.63
2018-08-30T11:24:00.897Z,1451.25
2018-08-30T11:25:00.911Z,1451.25
2018-08-30T11:26:01.028Z,1473.75
2018-08-30T11:27:01.040Z,1501.88
2018-08-30T11:28:01.093Z,1552.50
2018-08-30T11:29:01.168Z,1541.25
2018-08-30T11:30:01.196Z,1524.38
2018-08-30T11:31:01.250Z,1569.38
2018-08-30T11:32:01.311Z,1580.63
2018-08-30T11:33:01.377Z,1580.63
2018-08-30T11:34:01.452Z,1597.50
2018-08-30T11:35:01.766Z,1575.00
2018-08-30T11:36:01.521Z,1518.75
2018-08-30T11:37:01.577Z,1513.13
2018-08-30T11:38:01.652Z,1535.63
2018-08-30T11:39:01.690Z,1552.50
2018-08-30T11:40:01.736Z,1530.00
2018-08-30T11:41:01.788Z,1530.00
2018-08-30T11:42:01.845Z,1552.50
2018-08-30T11:43:01.877Z,1535.63
2018-08-30T11:44:01.934Z,1546.88
2018-08-30T11:45:02.015Z,1530.00
2018-08-30T11:46:02.055Z,1535.63
2018-08-30T11:47:02.100Z,1524.38
2018-08-30T11:48:02.191Z,1569.38
2018-08-30T11:49:02.210Z,1636.88
2018-08-30T11:50:02.269Z,1642.50
2018-08-30T11:51:02.366Z,1659.38
2018-08-30T11:52:02.384Z,1603.13
2018-08-30T11:53:02.402Z,1648.13
2018-08-30T11:54:02.500Z,1687.50
2018-08-30T11:55:02.551Z,1721.25
2018-08-30T11:56:02.596Z,1670.63
2018-08-30T11:57:02.642Z,1704.38
2018-08-30T11:58:03.043Z,1676.25
2018-08-30T11:59:02.749Z,1721.25
2018-08-30T12:00:02.790Z,1749.38
2018-08-30T12:01:02.849Z,1687.50
2018-08-30T12:02:02.911Z,1698.75
2018-08-30T12:03:02.977Z,1698.75
2018-08-30T12:04:03.078Z,1771.88
2018-08-30T12:05:03.072Z,1715.63
2018-08-30T12:06:03.120Z,1676.25
2018-08-30T12:07:03.247Z,1732.50
2018-08-30T12:08:03.331Z,1743.75
2018-08-30T12:09:03.299Z,1771.88
2018-08-30T12:10:03.613Z,1816.88
2018-08-30T12:11:03.838Z,1822.50
2018-08-30T12:12:03.470Z,1800.00
2018-08-30T12:13:03.525Z,1771.88
2018-08-30T12:14:03.577Z,1755.00
2018-08-30T12:15:03.664Z,1726.88
2018-08-30T12:16:03.710Z,1726.88
2018-08-30T12:17:03.742Z,1738.13
2018-08-30T12:18:03.829Z,1755.00
2018-08-30T12:19:03.858Z,1771.88
2018-08-30T12:20:03.905Z,1766.25
2018-08-30T12:21:03.952Z,1704.38
2018-08-30T12:22:05.027Z,1665.00
2018-08-30T12:23:04.060Z,1653.75
2018-08-30T12:24:04.174Z,1620.00
2018-08-30T12:25:04.188Z,1710.00
2018-08-30T12:26:04.241Z,1738.13
2018-08-30T12:27:04.293Z,1884.38
2018-08-30T12:28:04.404Z,1985.63
2018-08-30T12:29:04.837Z,1895.63
2018-08-30T12:30:04.444Z,1901.25
2018-08-30T12:31:04.604Z,1749.38
2018-08-30T12:32:04.640Z,1766.25
2018-08-30T12:33:04.688Z,1940.63
2018-08-30T12:34:04.742Z,1895.63
2018-08-30T12:35:05.190Z,1901.25
2018-08-30T12:36:04.779Z,1951.88
2018-08-30T12:37:04.852Z,1935.00
2018-08-30T12:38:04.934Z,1963.13
2018-08-30T12:39:05.071Z,1906.88
2018-08-30T12:40:05.148Z,2086.88
2018-08-30T12:41:05.393Z,2199.38
2018-08-30T12:42:05.169Z,2120.63
2018-08-30T12:43:05.212Z,2098.13
2018-08-30T12:44:05.369Z,2013.75
2018-08-30T12:45:05.374Z,2047.50
2018-08-30T12:46:05.404Z,2092.50
2018-08-30T12:47:05.395Z,2176.88
2018-08-30T12:48:05.454Z,2199.38
2018-08-30T12:49:05.535Z,2160.00
2018-08-30T12:50:05.703Z,2148.75
2018-08-30T12:51:05.813Z,2041.88
2018-08-30T12:52:05.790Z,1918.13
2018-08-30T12:53:06.018Z,2019.38
2018-08-30T12:54:06.010Z,2221.88
2018-08-30T12:55:06.031Z,2227.50
2018-08-30T12:56:06.106Z,2441.25
2018-08-30T12:57:06.083Z,2604.38
2018-08-30T12:58:06.136Z,2531.25
2018-08-30T12:59:06.269Z,2368.13
2018-08-30T13:00:06.357Z,2418.75
2018-08-30T13:01:06.385Z,2413.13